Time;durP1;ratioP1;P1;durP2;ratioP2;P2;SDS_P1;SDS_P2;PMS_P1;PMS_P2;Temp;Humidity;BMP_temperature;BMP_pressure;BME280_temperature;BME280_humidity;BME280_pressure;Samples;Min_cycle;Max_cycle;Signal;HPM_P1;HPM_P2
2022/12/18 00:01:13;;;;;;;4.32;3.65;;;5.10;87.00;;;;;;5095012;28;20026;-58
2022/12/18 00:03:38;;;;;;;4.05;3.33;;;5.00;86.70;;;;;;5103136;28;20027;-59
2022/12/18 00:06:04;;;;;;;4.03;3.55;;;5.00;86.50;;;;;;5107718;28;20031;-53
2022/12/18 00:08:29;;;;;;;3.33;3.03;;;5.00;86.70;;;;;;5105781;28;20477;-51
2022/12/18 00:10:55;;;;;;;4.50;3.53;;;4.90;86.90;;;;;;5113445;28;20027;-57
2022/12/18 00:13:21;;;;;;;4.03;3.55;;;4.90;86.70;;;;;;5102344;28;20088;-56
2022/12/18 00:15:46;;;;;;;4.32;3.83;;;4.90;86.70;;;;;;5099922;28;20028;-54
2022/12/18 00:18:12;;;;;;;4.57;3.90;;;4.90;86.70;;;;;;5100354;28;20040;-53
2022/12/18 00:20:39;;;;;;;5.00;4.13;;;4.90;86.80;;;;;;5100956;28;20027;-52
2022/12/18 00:23:06;;;;;;;5.22;3.85;;;4.90;86.90;;;;;;5100293;28;20028;-52
2022/12/18 00:25:36;;;;;;;5.43;4.65;;;4.90;86.60;;;;;;5091923;28;20039;-56
2022/12/18 00:28:02;;;;;;;5.03;4.35;;;4.90;85.90;;;;;;5106906;28;20386;-57
2022/12/18 00:30:28;;;;;;;5.32;4.43;;;4.90;85.90;;;;;;5097105;28;20486;-59
2022/12/18 00:32:54;;;;;;;5.32;4.82;;;4.90;85.80;;;;;;5093006;28;20024;-58
2022/12/18 00:35:20;;;;;;;5.75;4.75;;;4.80;85.30;;;;;;5099681;28;20446;-57
2022/12/18 00:37:45;;;;;;;6.53;5.07;;;4.80;85.70;;;;;;5098689;28;20394;-56
2022/12/18 00:40:11;;;;;;;6.93;4.88;;;4.80;85.40;;;;;;5099691;28;20031;-54
2022/12/18 00:42:55;;;;;;;6.82;4.70;;;4.80;85.50;;;;;;5114006;28;20073;-55
2022/12/18 00:45:26;;;;;;;6.65;4.95;;;4.80;85.30;;;;;;5094816;28;20115;-59
2022/12/18 00:47:52;;;;;;;7.10;5.37;;;4.80;85.30;;;;;;5104112;28;20097;-59
2022/12/18 00:50:18;;;;;;;6.35;5.22;;;4.80;85.20;;;;;;5092528;28;20607;-51
2022/12/18 00:52:43;;;;;;;6.03;5.38;;;4.80;85.10;;;;;;5096064;28;20024;-51
2022/12/18 00:55:10;;;;;;;6.90;5.28;;;4.80;85.00;;;;;;5112374;28;20080;-51
2022/12/18 00:57:36;;;;;;;8.02;5.57;;;4.80;85.00;;;;;;5106571;28;20046;-48
2022/12/18 01:00:02;;;;;;;7.20;5.55;;;4.70;85.20;;;;;;5101945;28;20032;-48
2022/12/18 01:02:28;;;;;;;7.82;5.85;;;4.80;85.30;;;;;;5095334;28;20081;-49
2022/12/18 01:04:53;;;;;;;7.63;5.72;;;4.70;85.40;;;;;;5111924;28;20027;-50
2022/12/18 01:07:19;;;;;;;8.35;5.97;;;4.80;85.30;;;;;;5107814;28;20390;-56
2022/12/18 01:09:45;;;;;;;6.63;5.88;;;4.80;85.20;;;;;;5102549;28;20016;-58
2022/12/18 01:12:10;;;;;;;7.43;5.82;;;4.80;85.20;;;;;;5094300;28;20036;-49
2022/12/18 01:14:37;;;;;;;7.78;6.10;;;4.80;85.40;;;;;;5083319;28;20042;-50
2022/12/18 01:17:03;;;;;;;8.40;6.72;;;4.80;85.30;;;;;;5108839;28;20063;-59
2022/12/18 01:19:29;;;;;;;10.45;6.97;;;4.70;85.10;;;;;;5109945;28;20059;-60
2022/12/18 01:21:55;;;;;;;8.60;7.28;;;4.70;85.20;;;;;;5112749;28;20034;-55
2022/12/18 01:24:20;;;;;;;8.75;7.25;;;4.70;85.10;;;;;;5104540;28;20054;-55
2022/12/18 01:26:46;;;;;;;9.77;7.63;;;4.70;85.10;;;;;;5092457;28;20032;-57
2022/12/18 01:29:12;;;;;;;9.65;7.65;;;4.70;84.90;;;;;;5102160;28;20354;-57
2022/12/18 01:31:37;;;;;;;9.90;7.40;;;4.70;84.90;;;;;;5112781;28;20027;-55
2022/12/18 01:34:04;;;;;;;10.85;7.63;;;4.70;84.60;;;;;;5113755;28;20031;-55
2022/12/18 01:36:35;;;;;;;10.90;7.72;;;4.70;84.50;;;;;;5111365;28;20027;-54
2022/12/18 01:39:04;;;;;;;11.10;7.57;;;4.70;84.10;;;;;;5093468;28;20065;-54
2022/12/18 01:44:50;;;;;;;8.60;6.95;;;4.60;84.00;;;;;;5101490;28;20077;-54
2022/12/18 01:47:38;;;;;;;8.75;7.35;;;4.60;84.00;;;;;;5096680;28;20146;-55
2022/12/18 01:50:11;;;;;;;11.07;8.25;;;4.60;83.80;;;;;;5091013;28;20028;-54
2022/12/18 01:52:37;;;;;;;10.35;8.10;;;4.50;83.40;;;;;;5092931;28;20027;-56
2022/12/18 01:55:05;;;;;;;10.38;8.02;;;4.50;83.80;;;;;;5092458;28;20567;-56
2022/12/18 01:57:32;;;;;;;10.73;8.88;;;4.50;84.00;;;;;;5092467;28;20494;-55
2022/12/18 02:00:04;;;;;;;10.43;7.15;;;4.40;83.40;;;;;;5092979;28;20020;-56
2022/12/18 02:02:30;;;;;;;12.00;8.75;;;4.40;83.70;;;;;;5105595;28;20030;-57
2022/12/18 02:04:56;;;;;;;10.75;8.05;;;4.30;83.50;;;;;;5092365;28;20043;-55
2022/12/18 02:07:42;;;;;;;10.57;8.07;;;4.30;83.40;;;;;;5099513;28;20024;-64
2022/12/18 02:10:42;;;;;;;10.52;8.15;;;4.30;83.70;;;;;;5104774;28;20506;-65
2022/12/18 02:13:26;;;;;;;8.60;7.65;;;4.30;83.90;;;;;;5067300;28;20077;-52
2022/12/18 02:16:23;;;;;;;10.60;7.85;;;4.30;84.00;;;;;;5091352;28;20016;-58
2022/12/18 02:18:54;;;;;;;11.27;8.13;;;4.30;83.90;;;;;;5095668;28;20023;-57
2022/12/18 02:21:39;;;;;;;9.80;7.47;;;4.30;84.00;;;;;;5100200;28;20031;-59
2022/12/18 02:24:24;;;;;;;11.75;8.32;;;4.30;84.00;;;;;;5091292;28;20412;-59
2022/12/18 02:26:57;;;;;;;10.25;7.97;;;4.30;83.60;;;;;;5094949;28;20073;-53
2022/12/18 02:29:28;;;;;;;10.93;8.35;;;4.30;83.60;;;;;;5092498;28;20012;-54
2022/12/18 02:31:59;;;;;;;11.48;8.32;;;4.40;83.90;;;;;;5094087;28;20430;-56
2022/12/18 02:34:30;;;;;;;11.43;7.67;;;4.40;83.90;;;;;;5112178;28;20067;-56
2022/12/18 02:36:57;;;;;;;10.43;7.82;;;4.40;83.60;;;;;;5100245;28;20024;-48
2022/12/18 02:39:25;;;;;;;9.48;7.35;;;4.40;83.20;;;;;;5097513;28;20466;-52
2022/12/18 02:41:51;;;;;;;10.38;8.45;;;4.40;83.20;;;;;;5091046;28;20024;-48
2022/12/18 02:44:16;;;;;;;9.75;8.00;;;4.40;82.70;;;;;;5091067;28;20077;-49
2022/12/18 02:46:48;;;;;;;11.43;8.52;;;4.40;82.40;;;;;;5091830;28;20044;-49
2022/12/18 02:49:36;;;;;;;10.25;7.85;;;4.30;82.30;;;;;;5093448;28;20028;-48
2022/12/18 02:52:23;;;;;;;12.82;8.68;;;4.30;82.50;;;;;;5106506;28;20012;-48
2022/12/18 02:55:07;;;;;;;13.75;9.65;;;4.30;82.20;;;;;;5097964;28;20012;-50
2022/12/18 02:57:56;;;;;;;12.05;8.90;;;4.20;82.00;;;;;;5097090;28;20377;-50
2022/12/18 03:00:30;;;;;;;10.18;8.43;;;4.20;81.70;;;;;;5097022;28;20355;-50
2022/12/18 03:03:25;;;;;;;14.57;10.07;;;4.10;81.60;;;;;;5096591;28;20061;-50
2022/12/18 03:06:00;;;;;;;12.40;8.88;;;4.10;81.50;;;;;;5097491;28;20028;-49
2022/12/18 03:08:28;;;;;;;11.88;9.07;;;4.00;81.70;;;;;;5096894;28;20024;-48
2022/12/18 03:11:01;;;;;;;13.55;9.55;;;4.00;81.80;;;;;;5097415;28;20028;-48
2022/12/18 03:13:34;;;;;;;12.27;8.82;;;4.00;82.20;;;;;;5096828;28;20460;-48
2022/12/18 03:16:01;;;;;;;13.10;9.50;;;4.00;81.90;;;;;;5096740;28;20419;-50
2022/12/18 03:18:53;;;;;;;15.07;10.15;;;3.90;81.90;;;;;;5096732;28;20035;-50
2022/12/18 03:21:24;;;;;;;13.95;10.20;;;3.90;82.00;;;;;;5095973;28;20036;-50
2022/12/18 03:23:52;;;;;;;11.88;9.15;;;3.90;82.20;;;;;;5096834;28;20028;-48
2022/12/18 03:26:21;;;;;;;14.50;10.38;;;3.90;82.10;;;;;;5096518;28;20035;-50
2022/12/18 03:28:51;;;;;;;13.90;10.35;;;3.90;82.10;;;;;;5096488;28;20024;-49
2022/12/18 03:31:19;;;;;;;15.10;9.98;;;4.00;82.10;;;;;;5096455;28;20028;-48
2022/12/18 03:33:58;;;;;;;14.70;10.25;;;4.00;82.20;;;;;;5096422;28;20378;-50
2022/12/18 03:36:24;;;;;;;13.90;9.80;;;4.00;82.40;;;;;;5096361;28;20024;-48
2022/12/18 03:38:50;;;;;;;13.00;9.80;;;4.00;82.20;;;;;;5096287;28;20024;-48
2022/12/18 03:41:32;;;;;;;12.85;10.45;;;4.00;82.00;;;;;;5096045;28;20430;-59
2022/12/18 03:44:20;;;;;;;14.35;10.20;;;4.10;81.50;;;;;;5096169;28;20031;-59
2022/12/18 03:47:01;;;;;;;13.95;9.60;;;4.00;81.30;;;;;;5096023;28;20050;-50
2022/12/18 03:49:42;;;;;;;14.75;11.20;;;4.00;81.50;;;;;;5096101;28;20050;-52
2022/12/18 03:52:14;;;;;;;11.88;9.00;;;3.90;81.10;;;;;;5096509;28;20081;-57
2022/12/18 03:54:41;;;;;;;14.73;10.45;;;3.90;81.00;;;;;;5096005;28;20024;-57
2022/12/18 03:57:13;;;;;;;14.70;10.60;;;3.80;81.00;;;;;;5096291;28;20028;-64
2022/12/18 03:59:40;;;;;;;14.80;11.10;;;3.80;80.80;;;;;;5096177;28;20020;-64
2022/12/18 04:02:08;;;;;;;14.48;10.88;;;3.80;80.90;;;;;;5095972;28;20200;-57
2022/12/18 04:41:17;;;;;;;18.10;12.27;;;3.40;81.20;;;;;;5108354;28;20152;-57
2022/12/18 04:43:42;;;;;;;18.55;13.38;;;3.30;81.40;;;;;;5099228;28;20119;-57
2022/12/18 04:46:08;;;;;;;18.92;13.80;;;3.40;81.60;;;;;;5094291;28;20040;-64
2022/12/18 04:48:35;;;;;;;17.73;12.85;;;3.40;81.50;;;;;;5114843;28;20377;-64
2022/12/18 04:51:00;;;;;;;20.88;14.63;;;3.40;81.50;;;;;;5115323;28;20530;-48
2022/12/18 04:53:26;;;;;;;18.20;13.10;;;3.40;81.20;;;;;;5115152;28;20110;-48
2022/12/18 04:56:13;;;;;;;17.85;13.00;;;3.40;81.30;;;;;;5115338;28;20077;-57
2022/12/18 04:58:40;;;;;;;18.35;13.23;;;3.40;81.30;;;;;;5115201;28;20031;-57
2022/12/18 05:01:07;;;;;;;17.42;12.88;;;3.30;81.00;;;;;;5115274;28;20102;-49
2022/12/18 05:03:33;;;;;;;18.13;12.73;;;3.30;81.40;;;;;;5115032;28;20024;-48
2022/12/18 05:05:59;;;;;;;16.58;12.43;;;3.30;81.50;;;;;;5115111;28;20019;-59
2022/12/18 05:08:25;;;;;;;19.90;13.30;;;3.30;81.40;;;;;;5114896;28;20024;-59
2022/12/18 05:11:05;;;;;;;19.10;12.68;;;3.40;81.10;;;;;;5114998;28;20458;-49
2022/12/18 05:13:32;;;;;;;21.88;13.90;;;3.40;80.90;;;;;;5114443;28;20051;-50
2022/12/18 05:15:57;;;;;;;22.08;13.32;;;3.30;81.10;;;;;;5115210;28;20098;-60
2022/12/18 05:18:24;;;;;;;19.75;14.00;;;3.30;80.70;;;;;;5096946;28;20489;-59
2022/12/18 05:20:51;;;;;;;21.42;15.10;;;3.30;80.60;;;;;;5114621;28;20023;-55
2022/12/18 05:23:17;;;;;;;17.27;12.98;;;3.30;80.40;;;;;;5115152;28;20470;-55
2022/12/18 05:25:50;;;;;;;18.60;12.32;;;3.20;80.60;;;;;;5114872;28;20024;-57
2022/12/18 05:28:15;;;;;;;18.23;13.07;;;3.20;80.80;;;;;;5114700;28;20027;-57
2022/12/18 05:30:41;;;;;;;18.73;12.60;;;3.20;80.50;;;;;;5115308;28;20152;-59
2022/12/18 05:33:06;;;;;;;16.85;12.70;;;3.20;80.40;;;;;;5114544;28;20034;-58
2022/12/18 05:35:32;;;;;;;21.85;14.13;;;3.20;80.60;;;;;;5114640;28;20542;-49
2022/12/18 05:37:58;;;;;;;17.58;12.18;;;3.20;80.40;;;;;;5114817;28;20085;-50
2022/12/18 05:40:23;;;;;;;18.10;12.55;;;3.10;80.30;;;;;;5114631;28;20027;-47
2022/12/18 05:42:49;;;;;;;17.92;12.52;;;3.10;80.30;;;;;;5114326;28;20363;-47
2022/12/18 05:45:15;;;;;;;20.77;13.35;;;3.10;80.50;;;;;;5114601;28;20485;-58
2022/12/18 05:47:40;;;;;;;19.73;13.40;;;3.10;80.50;;;;;;5114070;28;20044;-57
2022/12/18 05:50:07;;;;;;;20.45;14.57;;;3.10;80.40;;;;;;5115170;28;20196;-57
2022/12/18 05:52:32;;;;;;;19.38;12.80;;;3.10;80.40;;;;;;5114206;28;20038;-57
2022/12/18 05:54:58;;;;;;;18.42;13.07;;;3.10;80.50;;;;;;5114477;28;20110;-57
2022/12/18 05:57:24;;;;;;;17.15;12.40;;;3.10;80.60;;;;;;5114379;28;20041;-59
2022/12/18 05:59:50;;;;;;;16.98;12.38;;;3.10;80.70;;;;;;5114243;28;20027;-59
2022/12/18 06:02:15;;;;;;;15.82;11.68;;;3.10;80.90;;;;;;5114223;28;20421;-59
2022/12/18 06:05:27;;;;;;;16.30;11.77;;;3.20;80.60;;;;;;5114139;28;20377;-59
2022/12/18 06:07:53;;;;;;;;;;;3.20;80.30;;;;;;5111877;28;20133;-58
2022/12/18 06:10:19;;;;;;;14.93;10.95;;;3.10;79.80;;;;;;5106532;28;19993;-58
2022/12/18 06:12:45;;;;;;;15.07;11.10;;;3.20;80.30;;;;;;5097199;28;20107;-59
2022/12/18 06:15:10;;;;;;;15.90;11.45;;;3.20;80.00;;;;;;5092587;28;20466;-59
2022/12/18 06:17:36;;;;;;;12.60;9.95;;;3.20;79.80;;;;;;5102655;28;20032;-48
2022/12/18 06:20:04;;;;;;;13.95;10.18;;;3.20;79.60;;;;;;5091847;28;20035;-48
2022/12/18 06:22:31;;;;;;;13.32;10.27;;;3.20;78.40;;;;;;5097526;28;20073;-55
2022/12/18 06:24:57;;;;;;;15.80;10.55;;;3.10;77.90;;;;;;5094890;28;20012;-57
2022/12/18 06:27:23;;;;;;;14.23;10.20;;;3.00;78.00;;;;;;5115803;28;20046;-57
2022/12/18 06:29:49;;;;;;;12.90;9.32;;;3.00;77.80;;;;;;5100772;28;20028;-58
2022/12/18 06:32:14;;;;;;;13.40;8.95;;;3.00;77.50;;;;;;5095431;28;20047;-60
2022/12/18 06:34:40;;;;;;;12.38;9.07;;;3.00;77.40;;;;;;5110075;28;20055;-59
2022/12/18 06:37:06;;;;;;;13.15;9.38;;;2.90;77.50;;;;;;5108109;28;20035;-57
2022/12/18 06:39:31;;;;;;;12.65;9.43;;;3.00;77.90;;;;;;5095919;28;20024;-57
2022/12/18 06:41:57;;;;;;;13.05;9.68;;;3.00;77.50;;;;;;5115043;28;20019;-56
2022/12/18 06:44:22;;;;;;;11.23;9.10;;;3.00;77.80;;;;;;5115137;28;20027;-57
2022/12/18 06:46:48;;;;;;;13.35;9.98;;;3.00;77.80;;;;;;5107201;28;20051;-59
2022/12/18 06:49:15;;;;;;;11.80;9.52;;;3.00;77.00;;;;;;5106684;28;20117;-59
2022/12/18 06:51:41;;;;;;;13.32;9.93;;;3.00;76.90;;;;;;5104675;28;20020;-54
2022/12/18 06:54:07;;;;;;;12.10;9.45;;;3.00;77.00;;;;;;5109418;28;20097;-55
2022/12/18 06:56:33;;;;;;;14.38;9.27;;;3.00;76.90;;;;;;5096584;28;20032;-55
2022/12/18 06:58:58;;;;;;;12.70;10.18;;;3.00;77.30;;;;;;5107485;28;20031;-55
2022/12/18 07:01:24;;;;;;;12.48;9.80;;;3.00;77.10;;;;;;5112250;28;20385;-55
2022/12/18 07:03:55;;;;;;;12.43;9.95;;;3.00;77.00;;;;;;5097069;28;20036;-54
2022/12/18 07:06:23;;;;;;;12.88;9.43;;;3.00;77.10;;;;;;5096474;28;20469;-55
2022/12/18 07:08:49;;;;;;;14.73;9.95;;;3.00;77.10;;;;;;5096454;28;20099;-54
2022/12/18 07:11:16;;;;;;;14.27;10.60;;;3.00;77.00;;;;;;5103207;28;20031;-62
2022/12/18 07:13:42;;;;;;;13.68;10.63;;;2.90;76.40;;;;;;5097127;28;20032;-62
2022/12/18 07:16:11;;;;;;;15.50;10.48;;;2.90;76.10;;;;;;5103822;28;20076;-64
2022/12/18 07:18:37;;;;;;;13.68;10.38;;;2.80;76.00;;;;;;5113858;28;20027;-63
2022/12/18 07:21:07;;;;;;;15.40;10.60;;;2.80;75.90;;;;;;5115446;28;20088;-64
2022/12/18 07:23:34;;;;;;;12.93;9.85;;;2.70;76.00;;;;;;5112426;28;20028;-62
2022/12/18 07:26:04;;;;;;;12.90;9.60;;;2.70;75.90;;;;;;5111233;28;20478;-64
2022/12/18 07:28:31;;;;;;;12.55;9.57;;;2.60;75.90;;;;;;5114661;28;20019;-61
2022/12/18 07:30:57;;;;;;;13.10;10.02;;;2.60;75.90;;;;;;5106915;28;20028;-63
2022/12/18 07:33:22;;;;;;;13.40;9.60;;;2.60;76.00;;;;;;5111805;28;20032;-60
2022/12/18 07:35:48;;;;;;;14.30;10.85;;;2.60;75.80;;;;;;5114433;28;20028;-53
2022/12/18 07:38:13;;;;;;;14.20;10.32;;;2.50;75.50;;;;;;5113536;28;20038;-52
2022/12/18 07:40:39;;;;;;;13.20;9.70;;;2.60;75.50;;;;;;5105507;28;20030;-52
2022/12/18 07:43:05;;;;;;;11.88;8.50;;;2.50;75.30;;;;;;5109597;28;20028;-51
2022/12/18 07:45:30;;;;;;;14.38;9.63;;;2.50;74.80;;;;;;5106151;28;20466;-59
2022/12/18 07:47:56;;;;;;;13.70;9.10;;;2.50;74.60;;;;;;5114114;28;20044;-59
2022/12/18 07:50:21;;;;;;;10.52;8.15;;;2.40;74.20;;;;;;5101521;28;20020;-59
2022/12/18 07:52:47;;;;;;;15.02;10.48;;;2.40;74.20;;;;;;5106380;28;20024;-57
2022/12/18 07:55:13;;;;;;;13.32;9.23;;;2.30;73.80;;;;;;5114906;28;20104;-64
2022/12/18 07:57:38;;;;;;;14.20;10.40;;;2.30;73.90;;;;;;5099408;28;20024;-65
2022/12/18 08:00:05;;;;;;;12.90;10.00;;;2.30;74.00;;;;;;5105200;28;20024;-64
2022/12/18 08:02:31;;;;;;;12.77;8.88;;;2.30;73.90;;;;;;5100101;28;20031;-63
2022/12/18 08:04:57;;;;;;;12.23;9.27;;;2.30;74.10;;;;;;5096399;28;20055;-65
2022/12/18 08:07:23;;;;;;;12.52;9.40;;;2.30;74.10;;;;;;5095963;28;20024;-63
2022/12/18 08:09:49;;;;;;;13.07;9.80;;;2.30;73.80;;;;;;5103936;28;20017;-65
2022/12/18 08:12:14;;;;;;;13.35;10.05;;;2.30;73.40;;;;;;5113421;28;20031;-63
2022/12/18 08:14:40;;;;;;;12.10;8.75;;;2.20;73.30;;;;;;5096452;28;20016;-66
2022/12/18 08:17:05;;;;;;;11.45;8.80;;;2.20;73.30;;;;;;5095618;28;20118;-64
2022/12/18 08:19:31;;;;;;;11.57;8.15;;;2.20;73.20;;;;;;5094483;28;20038;-64
2022/12/18 08:21:57;;;;;;;13.18;9.52;;;2.20;73.30;;;;;;5094258;28;20028;-64
2022/12/18 08:24:22;;;;;;;11.48;8.90;;;2.20;73.20;;;;;;5094221;28;20035;-66
2022/12/18 08:26:48;;;;;;;11.60;8.88;;;2.20;73.30;;;;;;5096350;28;20012;-66
2022/12/18 08:29:14;;;;;;;10.75;8.43;;;2.20;73.50;;;;;;5105598;28;20027;-64
2022/12/18 08:31:39;;;;;;;10.77;9.20;;;2.20;73.70;;;;;;5098822;28;20031;-65
2022/12/18 08:34:05;;;;;;;17.73;12.60;;;2.20;73.60;;;;;;5094639;28;20032;-65
2022/12/18 08:36:30;;;;;;;15.13;11.23;;;2.30;73.40;;;;;;5095634;28;20469;-64
2022/12/18 08:38:56;;;;;;;13.50;10.35;;;2.20;72.70;;;;;;5095095;28;20040;-65
2022/12/18 08:41:22;;;;;;;13.15;9.65;;;2.20;72.40;;;;;;5093870;28;20020;-64
2022/12/18 08:46:39;;;;;;;13.93;10.27;;;2.10;72.60;;;;;;5093640;28;20059;-66
2022/12/18 08:49:05;;;;;;;12.80;9.98;;;2.00;72.50;;;;;;5099444;28;20023;-66
2022/12/18 08:51:31;;;;;;;11.90;9.20;;;2.00;72.50;;;;;;5099111;28;20465;-63
2022/12/18 08:53:57;;;;;;;12.38;9.05;;;2.00;72.70;;;;;;5110994;28;20026;-66
2022/12/18 08:56:23;;;;;;;11.80;8.80;;;2.00;72.90;;;;;;5098282;28;20036;-62
2022/12/18 08:58:54;;;;;;;12.95;9.60;;;2.00;73.00;;;;;;5106641;28;20391;-65
2022/12/18 09:01:20;;;;;;;12.10;8.88;;;2.00;72.90;;;;;;5105935;28;20023;-65
2022/12/18 09:03:46;;;;;;;12.73;9.45;;;1.90;72.50;;;;;;5104244;28;20477;-69
2022/12/18 09:06:15;;;;;;;13.77;9.80;;;1.90;72.50;;;;;;5099318;28;20024;-64
2022/12/18 09:08:41;;;;;;;11.95;9.07;;;1.90;72.20;;;;;;5105416;28;20505;-67
2022/12/18 09:11:22;;;;;;;11.95;8.85;;;1.80;72.20;;;;;;5100390;28;20023;-65
2022/12/18 09:13:48;;;;;;;12.73;8.85;;;1.70;72.20;;;;;;5114190;28;20548;-63
2022/12/18 09:16:13;;;;;;;11.00;8.65;;;1.70;72.10;;;;;;5117228;28;20054;-67
2022/12/18 09:18:39;;;;;;;9.80;8.15;;;1.60;72.20;;;;;;5115585;28;20070;-66
2022/12/18 09:21:10;;;;;;;10.73;8.68;;;1.60;72.30;;;;;;5101376;28;20039;-64
2022/12/18 09:23:35;;;;;;;12.15;9.80;;;1.60;72.20;;;;;;5101620;28;20035;-65
2022/12/18 09:26:01;;;;;;;11.50;9.07;;;1.60;72.00;;;;;;5105558;28;20115;-52
2022/12/18 09:28:27;;;;;;;9.48;8.07;;;1.60;71.70;;;;;;5105931;28;20026;-54
2022/12/18 09:30:52;;;;;;;10.38;8.00;;;1.50;71.80;;;;;;5109137;28;20034;-50
2022/12/18 09:33:18;;;;;;;11.75;8.65;;;1.50;72.00;;;;;;5099530;28;20453;-51
2022/12/18 09:35:45;;;;;;;10.82;8.15;;;1.50;71.90;;;;;;5107917;28;20019;-54
2022/12/18 09:38:17;;;;;;;13.05;8.93;;;1.50;71.80;;;;;;5103988;28;20068;-50
2022/12/18 09:40:49;;;;;;;11.05;8.77;;;1.50;71.80;;;;;;5103997;28;20037;-49
2022/12/18 09:43:19;;;;;;;10.05;8.07;;;1.50;72.10;;;;;;5106977;28;20455;-49
2022/12/18 09:45:51;;;;;;;9.52;8.40;;;1.50;71.90;;;;;;5101160;28;20036;-58
2022/12/18 09:48:26;;;;;;;11.30;8.05;;;1.50;71.60;;;;;;5100194;28;20024;-59
2022/12/18 09:50:59;;;;;;;11.15;8.32;;;1.50;71.60;;;;;;5100538;28;20020;-58
2022/12/18 09:53:30;;;;;;;10.82;7.95;;;1.40;71.60;;;;;;5104683;28;20024;-58
2022/12/18 09:55:56;;;;;;;10.13;8.35;;;1.40;71.60;;;;;;5102423;28;20051;-56
2022/12/18 09:58:35;;;;;;;10.15;8.00;;;1.50;71.70;;;;;;5095281;28;20043;-56
2022/12/18 10:01:01;;;;;;;10.95;7.65;;;1.50;71.40;;;;;;5092988;28;20076;-49
2022/12/18 10:24:19;;;;;;;9.30;7.75;;;1.30;70.40;;;;;;5093735;28;20382;-50
2022/12/18 10:26:45;;;;;;;9.45;7.55;;;1.30;70.50;;;;;;5093704;28;20117;-50
2022/12/18 10:29:13;;;;;;;12.45;7.93;;;1.30;70.50;;;;;;5093280;28;20374;-50
2022/12/18 10:31:39;;;;;;;10.23;7.78;;;1.30;70.60;;;;;;5093683;28;20034;-57
2022/12/18 10:34:09;;;;;;;10.07;8.20;;;1.30;70.50;;;;;;5093163;28;20111;-57
2022/12/18 10:36:35;;;;;;;11.15;8.50;;;1.30;70.30;;;;;;5093658;28;20043;-56
2022/12/18 10:39:26;;;;;;;10.88;8.13;;;1.20;70.30;;;;;;5093496;28;20028;-57
2022/12/18 10:41:51;;;;;;;10.40;8.02;;;1.20;70.10;;;;;;5093528;28;20482;-55
2022/12/18 10:44:20;;;;;;;9.65;7.95;;;1.20;70.20;;;;;;5093336;28;20111;-54
2022/12/18 10:46:53;;;;;;;9.65;7.82;;;1.20;70.60;;;;;;5093127;28;20040;-55
2022/12/18 10:49:24;;;;;;;10.40;7.82;;;1.20;70.60;;;;;;5093333;28;20024;-55
2022/12/18 10:51:51;;;;;;;9.57;7.95;;;1.20;70.90;;;;;;5094662;28;20016;-66
2022/12/18 10:54:23;;;;;;;9.27;8.02;;;1.30;70.90;;;;;;5095066;28;20085;-67
2022/12/18 10:56:49;;;;;;;9.57;7.63;;;1.30;70.60;;;;;;5095063;28;20032;-66
2022/12/18 10:59:17;;;;;;;9.75;8.02;;;1.30;70.50;;;;;;5094675;28;20487;-66
2022/12/18 11:01:57;;;;;;;10.18;8.30;;;1.30;70.30;;;;;;5093725;28;20089;-58
2022/12/18 11:04:26;;;;;;;9.27;7.80;;;1.30;70.20;;;;;;5093690;28;20105;-58
2022/12/18 11:06:56;;;;;;;10.77;8.27;;;1.30;70.40;;;;;;5093326;28;20496;-56
2022/12/18 11:09:27;;;;;;;11.30;8.10;;;1.30;70.40;;;;;;5093138;28;20048;-56
2022/12/18 11:11:55;;;;;;;10.13;8.40;;;1.30;70.00;;;;;;5097749;28;20024;-67
2022/12/18 11:14:33;;;;;;;9.57;7.80;;;1.30;69.90;;;;;;5098181;28;20035;-66
2022/12/18 11:17:00;;;;;;;11.82;8.48;;;1.30;70.00;;;;;;5097275;28;20052;-49
2022/12/18 11:19:31;;;;;;;10.15;7.65;;;1.20;69.70;;;;;;5096463;28;20078;-50
2022/12/18 11:21:57;;;;;;;10.27;8.20;;;1.20;69.30;;;;;;5097027;28;20068;-60
2022/12/18 11:24:36;;;;;;;8.95;6.97;;;1.20;69.20;;;;;;5096507;28;20035;-59
2022/12/18 11:27:06;;;;;;;9.05;6.63;;;1.20;69.50;;;;;;5116213;28;20028;-61
2022/12/18 11:29:37;;;;;;;9.95;7.07;;;1.20;69.30;;;;;;5114500;28;20027;-61
2022/12/18 11:32:38;;;;;;;7.60;6.35;;;1.20;69.10;;;;;;5116887;28;20055;-60
2022/12/18 11:35:30;;;;;;;9.45;7.10;;;1.20;68.80;;;;;;5117210;28;20035;-60
2022/12/18 11:38:06;;;;;;;9.25;6.82;;;1.20;69.20;;;;;;5098719;28;20433;-60
2022/12/18 11:40:42;;;;;;;10.13;7.15;;;1.20;69.00;;;;;;5116998;28;20055;-52
2022/12/18 11:43:16;;;;;;;7.95;6.65;;;1.20;69.00;;;;;;5098080;28;20169;-49
2022/12/18 11:46:10;;;;;;;9.65;7.00;;;1.20;69.00;;;;;;5116803;28;20016;-49
2022/12/18 11:48:49;;;;;;;9.48;7.10;;;1.20;68.90;;;;;;5116593;28;20050;-54
2022/12/18 11:51:25;;;;;;;9.63;8.10;;;1.20;69.10;;;;;;5116383;28;20027;-55
2022/12/18 11:53:51;;;;;;;10.50;8.00;;;1.10;68.90;;;;;;5116518;28;20057;-52
2022/12/18 12:03:54;;;;;;;9.77;7.40;;;1.10;69.00;;;;;;5100280;28;20085;-54
2022/12/18 12:06:42;;;;;;;10.30;8.13;;;1.10;69.20;;;;;;5106889;28;20057;-54
2022/12/18 12:09:26;;;;;;;8.65;6.93;;;1.10;69.20;;;;;;5108015;28;20382;-54
2022/12/18 12:12:10;;;;;;;9.23;7.45;;;1.10;69.20;;;;;;5100260;28;20027;-51
2022/12/18 12:14:39;;;;;;;8.13;7.18;;;1.20;69.20;;;;;;5098540;28;20028;-55
2022/12/18 12:17:10;;;;;;;11.88;7.93;;;1.20;69.00;;;;;;5097010;28;20028;-54
2022/12/18 12:20:00;;;;;;;9.73;7.28;;;1.10;69.00;;;;;;5096109;28;20595;-53
2022/12/18 12:22:54;;;;;;;10.13;7.47;;;1.20;69.20;;;;;;5095442;28;20090;-54
2022/12/18 12:25:23;;;;;;;10.50;8.00;;;1.20;69.20;;;;;;5095221;28;20023;-54
2022/12/18 12:28:11;;;;;;;9.55;7.60;;;1.20;69.20;;;;;;5095431;28;20132;-55
2022/12/18 12:30:52;;;;;;;11.20;8.60;;;1.20;69.20;;;;;;5095331;28;20047;-52
2022/12/18 12:33:44;;;;;;;9.27;7.70;;;1.20;69.20;;;;;;5095155;28;20036;-55
2022/12/18 12:36:14;;;;;;;;;;;1.20;69.20;;;;;;5064351;28;20060;-51
2022/12/18 12:38:56;;;;;;;10.65;7.68;;;1.10;68.70;;;;;;5095153;28;20320;-53
2022/12/18 12:44:41;;;;;;;10.30;8.35;;;1.10;69.60;;;;;;5094767;28;20043;-54
2022/12/18 12:47:27;;;;;;;10.38;7.68;;;1.10;69.20;;;;;;5092858;28;20050;-54
2022/12/18 12:49:54;;;;;;;11.18;8.13;;;1.10;69.50;;;;;;5110739;28;20478;-54
2022/12/18 12:52:29;;;;;;;11.13;8.80;;;1.10;69.80;;;;;;5115319;28;20016;-54
2022/12/18 12:54:56;;;;;;;11.02;8.00;;;1.10;70.00;;;;;;5115192;28;20073;-54
2022/12/18 12:57:31;;;;;;;12.52;9.02;;;1.00;70.00;;;;;;5100818;28;20027;-55
2022/12/18 13:00:08;;;;;;;11.20;8.07;;;1.00;70.00;;;;;;5098924;28;20032;-54
2022/12/18 13:02:38;;;;;;;10.25;7.72;;;1.00;70.10;;;;;;5094226;28;20024;-55
2022/12/18 13:05:27;;;;;;;10.35;8.40;;;1.00;70.20;;;;;;5096815;28;20403;-53
2022/12/18 13:08:10;;;;;;;9.77;7.43;;;1.00;70.30;;;;;;5096545;28;20058;-55
2022/12/18 13:10:41;;;;;;;10.30;8.32;;;1.10;70.30;;;;;;5094591;28;20098;-56
2022/12/18 13:13:12;;;;;;;10.20;7.20;;;1.10;70.50;;;;;;5094063;28;20022;-54
2022/12/18 13:16:06;;;;;;;9.27;7.28;;;1.10;70.40;;;;;;5094560;28;20115;-58
2022/12/18 13:18:33;;;;;;;9.98;7.35;;;1.20;70.60;;;;;;5094826;28;20459;-58
2022/12/18 13:20:58;;;;;;;10.30;7.93;;;1.20;70.30;;;;;;5094189;28;20020;-49
2022/12/18 13:23:24;;;;;;;10.15;7.90;;;1.20;70.10;;;;;;5094184;28;20024;-52
2022/12/18 13:26:19;;;;;;;10.13;7.18;;;1.10;70.10;;;;;;5094424;28;20095;-58
2022/12/18 13:28:45;;;;;;;10.70;7.55;;;1.20;70.10;;;;;;5093767;28;20024;-58
2022/12/18 13:31:31;;;;;;;10.68;8.40;;;1.10;69.80;;;;;;5094488;28;20024;-58
2022/12/18 13:34:24;;;;;;;11.60;8.77;;;1.10;69.70;;;;;;5092768;28;20028;-58
2022/12/18 13:36:54;;;;;;;11.05;8.57;;;1.00;69.70;;;;;;5090313;28;20117;-58
2022/12/18 13:39:21;;;;;;;10.07;7.80;;;1.00;69.70;;;;;;5094004;28;20024;-58
2022/12/18 13:41:49;;;;;;;11.88;8.50;;;1.00;69.70;;;;;;5093797;28;20027;-58
2022/12/18 13:44:34;;;;;;;9.00;7.10;;;1.00;70.10;;;;;;5106202;28;20028;-58
2022/12/18 13:47:02;;;;;;;8.43;7.25;;;1.00;70.00;;;;;;5113893;28;20047;-58
2022/12/18 13:49:43;;;;;;;9.52;7.38;;;0.90;70.70;;;;;;5114203;28;20427;-58
2022/12/18 13:52:22;;;;;;;10.05;7.93;;;0.90;69.90;;;;;;5114432;28;20481;-52
2022/12/18 13:55:01;;;;;;;9.05;7.60;;;0.90;69.90;;;;;;5114197;28;20031;-50
2022/12/18 13:57:38;;;;;;;10.35;7.68;;;0.80;70.10;;;;;;5114198;28;20080;-52
2022/12/18 14:00:18;;;;;;;9.43;7.30;;;0.80;70.10;;;;;;5114159;28;20027;-51
2022/12/18 14:02:45;;;;;;;9.27;7.32;;;0.80;70.20;;;;;;5113800;28;20028;-56
2022/12/18 14:05:23;;;;;;;8.20;7.13;;;0.80;70.20;;;;;;5113749;28;20038;-54
2022/12/18 14:07:49;;;;;;;8.35;6.97;;;0.80;70.40;;;;;;5111161;28;20019;-55
2022/12/18 14:10:16;;;;;;;8.30;6.55;;;0.80;70.30;;;;;;5093915;28;20023;-52
2022/12/18 14:13:19;;;;;;;8.90;6.57;;;0.80;70.00;;;;;;5107599;28;20412;-49
2022/12/18 14:15:47;;;;;;;9.02;6.43;;;0.80;70.00;;;;;;5110763;28;20077;-49
2022/12/18 14:18:31;;;;;;;7.72;6.00;;;0.80;70.20;;;;;;5109121;28;20021;-50
2022/12/18 14:20:59;;;;;;;9.40;6.65;;;0.80;70.10;;;;;;5102163;28;20107;-51